Time;durP1;ratioP1;P1;durP2;ratioP2;P2;SDS_P1;SDS_P2;PMS_P1;PMS_P2;Temp;Humidity;BMP_temperature;BMP_pressure;BME280_temperature;BME280_humidity;BME280_pressure;Samples;Min_cycle;Max_cycle;Signal;HPM_P1;HPM_P2
2021/06/01 00:02:18;;;;;;;1.67;1.30;;;;;;;11.12;100.00;96721.78;5073146;28;20197;-81
2021/06/01 00:04:44;;;;;;;2.77;1.37;;;;;;;11.01;100.00;96738.56;5073106;28;20198;-82
2021/06/01 00:07:13;;;;;;;3.57;1.53;;;;;;;10.98;100.00;96740.69;5072915;28;20209;-82
2021/06/01 00:09:40;;;;;;;1.57;1.47;;;;;;;10.92;100.00;96756.09;5083190;28;20211;-81
2021/06/01 00:12:08;;;;;;;3.30;1.63;;;;;;;10.96;100.00;96748.72;5093074;28;20252;-82
2021/06/01 00:14:34;;;;;;;1.23;1.07;;;;;;;11.00;100.00;96757.16;5093033;28;20205;-81
2021/06/01 00:17:05;;;;;;;2.40;1.40;;;;;;;10.82;100.00;96751.88;5093269;28;20273;-82
2021/06/01 00:19:31;;;;;;;1.37;1.30;;;;;;;10.82;100.00;96760.59;5092789;28;20200;-82
2021/06/01 00:22:05;;;;;;;1.50;1.40;;;;;;;10.83;100.00;96764.84;5092910;28;20204;-82
2021/06/01 00:24:34;;;;;;;1.10;1.10;;;;;;;10.57;100.00;96769.19;5093167;28;20203;-81
2021/06/01 00:27:01;;;;;;;1.30;1.27;;;;;;;10.43;100.00;96766.06;5093400;28;20576;-81
2021/06/01 00:29:28;;;;;;;1.63;1.53;;;;;;;10.51;100.00;96767.94;5092685;28;20199;-81
2021/06/01 00:31:54;;;;;;;2.60;1.70;;;;;;;10.45;100.00;96769.34;5092683;28;20598;-81
2021/06/01 00:34:21;;;;;;;1.20;1.20;;;;;;;10.61;100.00;96775.78;5093021;28;20198;-81
2021/06/01 00:36:48;;;;;;;1.60;1.50;;;;;;;10.61;100.00;96779.25;5092894;28;20231;-81
2021/06/01 00:39:15;;;;;;;1.57;1.47;;;;;;;10.56;100.00;96784.09;5087275;28;20200;-81
2021/06/01 00:41:43;;;;;;;1.20;1.20;;;;;;;10.58;100.00;96800.56;5072400;28;20185;-81
2021/06/01 00:44:11;;;;;;;1.13;1.13;;;;;;;10.60;100.00;96808.28;5072476;28;20185;-81
2021/06/01 00:46:38;;;;;;;1.50;1.40;;;;;;;10.60;100.00;96809.13;5072667;28;20193;-81
2021/06/01 00:49:05;;;;;;;1.60;1.40;;;;;;;10.56;100.00;96797.25;5071928;28;20199;-81
2021/06/01 00:51:32;;;;;;;1.80;1.70;;;;;;;10.53;100.00;96794.94;5072360;28;20198;-81
2021/06/01 00:54:01;;;;;;;2.40;1.40;;;;;;;10.53;100.00;96779.16;5072441;28;20201;-81
2021/06/01 00:56:28;;;;;;;1.70;1.60;;;;;;;10.52;100.00;96781.91;5072273;28;20224;-81
2021/06/01 00:58:57;;;;;;;1.30;1.30;;;;;;;10.47;100.00;96772.66;5071871;28;20680;-81
2021/06/01 01:01:24;;;;;;;1.90;1.00;;;;;;;10.36;100.00;96756.28;5072158;28;20232;-81
2021/06/01 01:03:54;;;;;;;1.13;1.03;;;;;;;10.22;100.00;96747.84;5072007;28;20597;-81
2021/06/01 01:06:39;;;;;;;2.17;1.30;;;;;;;10.21;100.00;96738.31;5072146;28;20197;-80
2021/06/01 01:09:10;;;;;;;3.97;1.40;;;;;;;10.12;100.00;96726.06;5071969;28;20243;-80
2021/06/01 01:11:42;;;;;;;1.30;1.20;;;;;;;10.04;100.00;96711.97;5072169;28;20185;-81
2021/06/01 01:14:17;;;;;;;1.37;1.27;;;;;;;10.01;100.00;96718.38;5071913;28;20185;-81
2021/06/01 01:16:50;;;;;;;1.57;1.47;;;;;;;9.94;100.00;96710.25;5072298;28;20699;-80
2021/06/01 01:19:32;;;;;;;3.10;1.73;;;;;;;9.88;100.00;96717.84;5071632;28;20236;-80
2021/06/01 01:21:58;;;;;;;1.60;1.20;;;;;;;9.96;100.00;96710.91;5072033;28;20610;-80
2021/06/01 01:24:41;;;;;;;1.50;1.40;;;;;;;9.86;100.00;96711.91;5071779;28;20257;-81
2021/06/01 01:27:15;;;;;;;1.40;1.30;;;;;;;9.99;100.00;96709.78;5072082;28;20219;-80
2021/06/01 01:29:45;;;;;;;1.40;1.30;;;;;;;9.91;100.00;96701.81;5071892;28;20181;-80
2021/06/01 01:32:21;;;;;;;2.63;1.67;;;;;;;9.90;100.00;96700.13;5072156;28;20251;-80
2021/06/01 01:34:53;;;;;;;1.10;1.10;;;;;;;9.80;100.00;96688.84;5071723;28;20223;-80
2021/06/01 01:37:21;;;;;;;1.13;1.13;;;;;;;9.88;100.00;96687.16;5071223;28;20236;-80
2021/06/01 01:39:53;;;;;;;1.70;1.60;;;;;;;9.86;100.00;96683.03;5071643;28;20211;-80
2021/06/01 01:42:22;;;;;;;1.47;1.20;;;;;;;9.94;100.00;96691.00;5072055;28;20182;-81
2021/06/01 01:44:51;;;;;;;1.33;1.23;;;;;;;9.90;100.00;96684.38;5071364;28;20197;-81
2021/06/01 01:50:09;;;;;;;1.97;1.50;;;;;;;9.95;100.00;96679.53;5071704;28;20218;-80
2021/06/01 01:52:38;;;;;;;1.20;1.10;;;;;;;9.91;100.00;96665.06;5071825;28;20596;-81
2021/06/01 01:55:07;;;;;;;1.80;1.70;;;;;;;9.98;100.00;96666.13;5071281;28;20197;-81
2021/06/01 01:57:35;;;;;;;2.63;1.40;;;;;;;9.92;100.00;96670.16;5071535;28;20320;-81
2021/06/01 02:00:07;;;;;;;1.30;1.20;;;;;;;10.02;100.00;96669.28;5071686;28;20274;-81
2021/06/01 02:02:34;;;;;;;1.10;1.10;;;;;;;10.02;100.00;96664.88;5071402;28;20225;-81
2021/06/01 02:05:02;;;;;;;2.67;1.30;;;;;;;9.92;100.00;96664.06;5071385;28;20208;-81
2021/06/01 02:07:31;;;;;;;1.40;1.30;;;;;;;9.63;100.00;96661.53;5071542;28;20205;-81
2021/06/01 02:09:59;;;;;;;1.50;1.40;;;;;;;9.53;100.00;96672.09;5071326;28;20685;-80
2021/06/01 02:12:26;;;;;;;1.40;1.30;;;;;;;9.52;100.00;96665.16;5071173;28;20209;-81
2021/06/01 02:14:54;;;;;;;1.67;1.57;;;;;;;9.61;100.00;96668.75;5071611;28;20618;-81
2021/06/01 02:17:21;;;;;;;1.50;1.20;;;;;;;9.62;100.00;96680.88;5071470;28;20225;-80
2021/06/01 02:19:48;;;;;;;2.03;1.20;;;;;;;9.54;100.00;96681.59;5071617;28;20197;-81
2021/06/01 02:22:22;;;;;;;3.47;1.37;;;;;;;9.71;100.00;96683.50;5071282;28;20202;-80
2021/06/01 02:24:59;;;;;;;1.20;1.10;;;;;;;9.67;100.00;96682.13;5075342;28;20189;-81
2021/06/01 02:27:33;;;;;;;1.27;1.23;;;;;;;9.71;100.00;96674.81;5075419;28;20606;-80
2021/06/01 02:30:08;;;;;;;1.27;1.17;;;;;;;9.73;100.00;96665.81;5074937;28;20181;-81
2021/06/01 02:32:37;;;;;;;1.43;1.33;;;;;;;9.64;100.00;96656.16;5074973;28;20620;-80
2021/06/01 02:35:08;;;;;;;1.63;1.30;;;;;;;9.67;100.00;96652.44;5074892;28;20271;-80
2021/06/01 02:37:38;;;;;;;1.37;1.10;;;;;;;9.52;100.00;96650.28;5074771;28;20709;-80
2021/06/01 02:40:10;;;;;;;1.50;1.23;;;;;;;9.46;100.00;96644.78;5074382;28;20201;-80
2021/06/01 02:42:39;;;;;;;1.50;1.13;;;;;;;9.68;100.00;96659.34;5074821;28;20193;-80
2021/06/01 02:45:09;;;;;;;2.73;1.27;;;;;;;9.64;100.00;96668.47;5074396;28;20586;-80
2021/06/01 02:47:36;;;;;;;1.13;1.13;;;;;;;9.43;100.00;96671.28;5074751;28;20224;-80
2021/06/01 02:50:08;;;;;;;1.47;1.37;;;;;;;9.40;100.00;96676.81;5074761;28;20577;-80
2021/06/01 02:52:37;;;;;;;3.60;1.50;;;;;;;9.54;100.00;96678.97;5074557;28;20189;-81
2021/06/01 02:55:05;;;;;;;1.50;1.40;;;;;;;9.38;100.00;96689.22;5074159;28;20233;-81
2021/06/01 02:57:34;;;;;;;1.30;1.30;;;;;;;9.38;100.00;96686.59;5074526;28;20217;-81
2021/06/01 03:00:01;;;;;;;1.33;1.23;;;;;;;9.39;100.00;96690.91;5074353;28;20197;-81
2021/06/01 03:02:29;;;;;;;1.30;1.20;;;;;;;9.37;100.00;96696.28;5074536;28;20204;-81
2021/06/01 03:04:56;;;;;;;1.97;1.23;;;;;;;9.34;100.00;96701.81;5074040;28;20204;-81
2021/06/01 03:07:23;;;;;;;2.40;1.20;;;;;;;9.22;100.00;96706.38;5074420;28;20202;-81
2021/06/01 03:09:50;;;;;;;3.23;1.20;;;;;;;9.21;100.00;96706.50;5074163;28;20688;-81
2021/06/01 03:12:24;;;;;;;0.97;0.97;;;;;;;9.29;100.00;96710.09;5074624;28;20197;-80
2021/06/01 03:14:53;;;;;;;1.40;1.30;;;;;;;9.27;100.00;96717.25;5074168;28;20201;-81
2021/06/01 03:17:20;;;;;;;1.80;1.30;;;;;;;9.22;100.00;96713.44;5073835;28;20231;-81
2021/06/01 03:19:46;;;;;;;4.63;1.30;;;;;;;9.05;100.00;96722.81;5074033;28;20230;-81
2021/06/01 03:22:13;;;;;;;1.10;1.10;;;;;;;9.07;100.00;96728.72;5074394;28;20193;-80
2021/06/01 03:24:40;;;;;;;1.40;1.30;;;;;;;9.28;100.00;96742.56;5074213;28;20251;-81
2021/06/01 03:27:08;;;;;;;1.30;1.20;;;;;;;9.37;100.00;96754.00;5073827;28;20193;-81
2021/06/01 03:29:34;;;;;;;1.50;1.40;;;;;;;9.31;100.00;96745.84;5073872;28;20205;-81
2021/06/01 03:32:03;;;;;;;1.67;1.57;;;;;;;9.36;100.00;96752.34;5073923;28;20244;-81
2021/06/01 03:34:30;;;;;;;1.17;1.10;;;;;;;9.41;100.00;96757.16;5073584;28;20562;-81
2021/06/01 03:36:57;;;;;;;1.17;1.10;;;;;;;9.33;100.00;96757.88;5073553;28;20233;-81
2021/06/01 03:39:26;;;;;;;1.33;1.23;;;;;;;9.34;100.00;96759.50;5073901;28;20685;-81
2021/06/01 03:41:53;;;;;;;1.10;1.10;;;;;;;9.39;100.00;96759.94;5073516;28;20692;-81
2021/06/01 03:44:20;;;;;;;1.40;1.20;;;;;;;9.31;100.00;96772.06;5073431;28;20201;-80
2021/06/01 03:46:47;;;;;;;1.20;1.20;;;;;;;9.41;100.00;96768.47;5082634;28;20192;-81
2021/06/01 03:49:15;;;;;;;1.67;1.57;;;;;;;9.42;100.00;96779.78;5093698;28;20207;-81
2021/06/01 03:51:42;;;;;;;2.67;1.50;;;;;;;9.55;100.00;96779.53;5084587;28;20193;-81
2021/06/01 03:54:09;;;;;;;3.10;1.43;;;;;;;9.52;100.00;96785.88;5083127;28;20200;-82
2021/06/01 03:56:36;;;;;;;1.60;1.50;;;;;;;9.47;100.00;96791.53;5092459;28;20263;-81
2021/06/01 03:59:03;;;;;;;1.80;1.70;;;;;;;9.53;100.00;96792.78;5085259;28;20213;-81
2021/06/01 04:01:30;;;;;;;1.43;1.37;;;;;;;9.56;100.00;96787.28;5073040;28;20193;-81
2021/06/01 04:03:57;;;;;;;1.57;1.47;;;;;;;9.55;100.00;96803.97;5073104;28;20207;-82
2021/06/01 04:06:25;;;;;;;2.53;1.60;;;;;;;9.60;100.00;96800.94;5077353;28;20253;-83
2021/06/01 04:08:53;;;;;;;1.47;1.37;;;;;;;9.73;100.00;96811.97;5093319;28;20580;-82
2021/06/01 04:11:24;;;;;;;1.60;1.50;;;;;;;9.74;100.00;96813.63;5095744;28;20572;-84
2021/06/01 04:13:51;;;;;;;3.07;1.47;;;;;;;9.69;100.00;96815.84;5095213;28;20199;-83
2021/06/01 04:16:18;;;;;;;1.60;1.50;;;;;;;9.86;100.00;96816.91;5093102;28;20196;-81
2021/06/01 04:18:45;;;;;;;2.33;1.83;;;;;;;9.77;100.00;96816.81;5092724;28;20214;-81
2021/06/01 04:21:12;;;;;;;1.90;1.80;;;;;;;9.81;100.00;96811.28;5093055;28;20199;-80
2021/06/01 04:23:40;;;;;;;2.07;1.93;;;;;;;9.83;100.00;96822.44;5093243;28;20200;-81
2021/06/01 04:26:07;;;;;;;1.40;1.30;;;;;;;9.83;100.00;96809.31;5093141;28;20207;-81
2021/06/01 04:28:34;;;;;;;2.20;2.00;;;;;;;9.77;100.00;96811.56;5092628;28;20207;-81
2021/06/01 04:31:00;;;;;;;2.20;2.00;;;;;;;9.88;100.00;96801.88;5093362;28;20196;-81
2021/06/01 04:33:27;;;;;;;1.90;1.80;;;;;;;9.99;100.00;96820.09;5093156;28;20641;-81
2021/06/01 04:35:54;;;;;;;3.20;1.40;;;;;;;9.98;100.00;96827.13;5092759;28;20250;-81
2021/06/01 04:38:21;;;;;;;2.00;1.50;;;;;;;10.09;100.00;96827.94;5092623;28;20205;-81
2021/06/01 04:40:49;;;;;;;1.97;1.83;;;;;;;10.02;100.00;96827.69;5093149;28;20280;-81
2021/06/01 04:43:16;;;;;;;2.47;2.27;;;;;;;10.11;100.00;96826.81;5092637;28;20234;-81
2021/06/01 04:45:43;;;;;;;2.60;2.40;;;;;;;10.19;100.00;96834.84;5091882;28;20207;-82
2021/06/01 04:48:10;;;;;;;3.67;2.17;;;;;;;10.24;100.00;96840.47;5092326;28;20234;-81
2021/06/01 04:50:37;;;;;;;2.30;2.20;;;;;;;10.36;100.00;96850.88;5092725;28;20238;-82
2021/06/01 04:53:04;;;;;;;2.23;2.13;;;;;;;10.55;100.00;96861.31;5092415;28;20265;-81
2021/06/01 04:55:31;;;;;;;2.77;2.57;;;;;;;10.56;100.00;96864.75;5092578;28;20699;-82
2021/06/01 04:57:59;;;;;;;2.30;1.97;;;;;;;10.64;100.00;96857.00;5092073;28;20310;-82
2021/06/01 05:00:26;;;;;;;2.53;2.33;;;;;;;10.71;100.00;96861.53;5092771;28;20682;-82
2021/06/01 05:02:52;;;;;;;2.63;2.40;;;;;;;10.79;100.00;96849.44;5092389;28;20232;-82
2021/06/01 05:05:19;;;;;;;2.60;2.40;;;;;;;10.92;100.00;96842.88;5092339;28;20207;-82
2021/06/01 05:07:46;;;;;;;2.03;1.93;;;;;;;11.01;100.00;96838.53;5092095;28;20232;-82
2021/06/01 05:10:13;;;;;;;3.93;1.70;;;;;;;11.15;100.00;96824.03;5092258;28;20200;-82
2021/06/01 05:12:40;;;;;;;1.57;1.47;;;;;;;11.19;100.00;96822.78;5092252;28;20201;-82
2021/06/01 05:15:10;;;;;;;1.17;1.17;;;;;;;11.33;100.00;96803.03;5092085;28;20231;-82
2021/06/01 05:17:37;;;;;;;1.37;1.30;;;;;;;11.42;100.00;96783.69;5091991;28;20223;-82
2021/06/01 05:20:05;;;;;;;1.80;1.70;;;;;;;11.62;100.00;96772.00;5092036;28;20630;-84
2021/06/01 05:22:31;;;;;;;1.20;1.20;;;;;;;11.68;100.00;96757.41;5092152;28;20230;-84
2021/06/01 05:24:58;;;;;;;1.60;1.50;;;;;;;11.73;100.00;96728.81;5091822;28;20231;-84
2021/06/01 05:27:25;;;;;;;1.33;1.30;;;;;;;11.94;100.00;96706.59;5092415;28;20192;-83
2021/06/01 05:29:54;;;;;;;1.53;1.43;;;;;;;11.98;100.00;96687.66;5091937;28;20222;-83
2021/06/01 05:35:18;;;;;;;1.70;1.60;;;;;;;12.16;100.00;96645.44;5090770;28;20257;-83
2021/06/01 05:37:45;;;;;;;2.17;2.07;;;;;;;12.30;100.00;96631.66;5090482;28;20208;-82
2021/06/01 05:40:14;;;;;;;1.70;1.60;;;;;;;12.49;100.00;96612.09;5090827;28;20651;-83
2021/06/01 05:42:41;;;;;;;1.97;1.87;;;;;;;12.55;100.00;96594.81;5090979;28;20200;-83
2021/06/01 05:45:08;;;;;;;2.00;1.90;;;;;;;12.72;100.00;96583.28;5090500;28;20194;-82
2021/06/01 05:47:37;;;;;;;2.03;1.93;;;;;;;12.66;100.00;96580.47;5091154;28;20236;-83
2021/06/01 05:50:05;;;;;;;6.60;2.50;;;;;;;12.73;100.00;96568.28;5091804;28;20195;-83
2021/06/01 05:52:34;;;;;;;2.10;2.00;;;;;;;12.79;100.00;96562.34;5091884;28;20196;-83
2021/06/01 05:55:04;;;;;;;2.00;1.90;;;;;;;13.00;100.00;96554.75;5091804;28;20273;-82
2021/06/01 05:57:31;;;;;;;2.00;1.90;;;;;;;13.02;100.00;96541.38;5092438;28;20662;-83
2021/06/01 05:59:58;;;;;;;2.80;1.77;;;;;;;13.24;100.00;96538.09;5095752;28;20192;-83
2021/06/01 06:02:25;;;;;;;2.30;2.10;;;;;;;13.23;100.00;96539.06;5096276;28;20627;-83
2021/06/01 06:04:53;;;;;;;2.40;1.87;;;;;;;13.29;100.00;96519.91;5095362;28;20295;-83
2021/06/01 06:07:20;;;;;;;2.47;2.17;;;;;;;13.45;100.00;96515.59;5095826;28;20252;-83
2021/06/01 06:09:47;;;;;;;1.70;1.60;;;;;;;13.50;100.00;96510.59;5095592;28;20196;-83
2021/06/01 06:12:14;;;;;;;1.53;1.43;;;;;;;13.53;100.00;96497.88;5095812;28;20225;-82
2021/06/01 06:14:42;;;;;;;3.63;1.83;;;;;;;13.96;100.00;96487.78;5095484;28;20203;-82
2021/06/01 06:17:14;;;;;;;1.67;1.57;;;;;;;13.74;100.00;96480.63;5095750;28;20223;-83
2021/06/01 06:19:43;;;;;;;2.30;1.60;;;;;;;13.94;100.00;96471.28;5095792;28;20616;-82
2021/06/01 06:22:11;;;;;;;1.77;1.67;;;;;;;14.15;100.00;96478.56;5095568;28;20676;-82
2021/06/01 06:24:39;;;;;;;2.20;2.10;;;;;;;14.28;100.00;96464.78;5095313;28;20212;-82
2021/06/01 06:27:07;;;;;;;3.33;1.90;;;;;;;14.21;100.00;96454.09;5095266;28;20203;-82
2021/06/01 06:29:33;;;;;;;1.93;1.83;;;;;;;14.22;100.00;96441.69;5095215;28;20672;-83
2021/06/01 06:32:02;;;;;;;1.90;1.70;;;;;;;14.26;100.00;96433.22;5095713;28;20232;-83
2021/06/01 06:34:29;;;;;;;1.67;1.57;;;;;;;14.45;100.00;96423.97;5094910;28;20204;-82
2021/06/01 06:36:56;;;;;;;1.80;1.70;;;;;;;14.63;100.00;96422.84;5095068;28;20236;-81
2021/06/01 06:39:24;;;;;;;1.40;1.40;;;;;;;14.77;100.00;96400.88;5094978;28;20249;-82
2021/06/01 06:41:51;;;;;;;1.50;1.40;;;;;;;15.05;100.00;96400.25;5095213;28;20193;-82
2021/06/01 06:44:19;;;;;;;1.50;1.40;;;;;;;14.81;100.00;96394.22;5094767;28;20204;-82
2021/06/01 06:46:52;;;;;;;1.70;1.60;;;;;;;15.01;100.00;96398.97;5095095;28;20296;-82
2021/06/01 06:49:21;;;;;;;1.60;1.50;;;;;;;14.83;100.00;96402.81;5095427;28;20238;-82
2021/06/01 06:51:48;;;;;;;2.03;1.47;;;;;;;14.31;100.00;96408.91;5095031;28;20230;-83
2021/06/01 06:54:15;;;;;;;1.37;1.30;;;;;;;14.83;100.00;96405.47;5095025;28;20691;-82
2021/06/01 06:56:43;;;;;;;1.30;1.30;;;;;;;15.10;100.00;96406.66;5095070;28;20243;-82
2021/06/01 06:59:10;;;;;;;2.00;1.90;;;;;;;15.14;100.00;96397.34;5094640;28;20199;-83
2021/06/01 07:01:37;;;;;;;1.60;1.50;;;;;;;15.00;100.00;96390.22;5094831;28;20204;-82
2021/06/01 07:04:04;;;;;;;2.00;1.37;;;;;;;14.97;100.00;96391.41;5094330;28;20196;-82
2021/06/01 07:06:31;;;;;;;1.67;1.57;;;;;;;15.19;100.00;96394.13;5094768;28;20200;-82
2021/06/01 07:08:58;;;;;;;2.10;1.30;;;;;;;15.37;100.00;96383.13;5093966;28;20198;-82
2021/06/01 07:11:25;;;;;;;4.63;1.57;;;;;;;15.60;100.00;96381.16;5094937;28;20199;-82
2021/06/01 07:14:01;;;;;;;2.77;1.13;;;;;;;15.35;100.00;96356.84;5094317;28;20230;-83
2021/06/01 07:16:28;;;;;;;3.20;1.33;;;;;;;15.71;100.00;96349.94;5094267;28;20221;-82
2021/06/01 07:18:55;;;;;;;1.20;1.20;;;;;;;15.80;100.00;96333.72;5094321;28;20196;-82
2021/06/01 07:21:22;;;;;;;1.47;1.40;;;;;;;15.83;100.00;96322.75;5094784;28;20247;-82
2021/06/01 07:23:49;;;;;;;1.80;1.20;;;;;;;15.80;100.00;96327.59;5094496;28;20661;-82
2021/06/01 07:26:16;;;;;;;1.07;1.07;;;;;;;15.85;100.00;96331.31;5094281;28;20287;-82
2021/06/01 07:28:43;;;;;;;1.33;1.30;;;;;;;15.64;100.00;96305.59;5094064;28;20247;-82
2021/06/01 07:31:14;;;;;;;1.37;1.27;;;;;;;15.89;100.00;96311.34;5094539;28;20209;-83
2021/06/01 07:33:41;;;;;;;1.40;1.30;;;;;;;15.69;100.00;96311.19;5094072;28;20191;-82
2021/06/01 07:36:08;;;;;;;2.13;1.50;;;;;;;15.77;100.00;96301.47;5093713;28;20727;-83
2021/06/01 07:38:36;;;;;;;1.40;1.30;;;;;;;15.71;100.00;96299.59;5093818;28;20259;-82
2021/06/01 07:41:03;;;;;;;1.37;1.30;;;;;;;15.38;100.00;96308.81;5094379;28;20565;-82
2021/06/01 07:43:30;;;;;;;1.27;1.27;;;;;;;15.78;100.00;96324.31;5093848;28;20200;-82
2021/06/01 07:45:58;;;;;;;1.50;1.30;;;;;;;15.95;100.00;96324.88;5094281;28;20200;-82
2021/06/01 07:48:26;;;;;;;1.60;1.50;;;;;;;15.63;100.00;96295.22;5093764;28;20233;-82
2021/06/01 07:50:54;;;;;;;2.43;1.40;;;;;;;15.77;100.00;96299.66;5093945;28;20197;-82
2021/06/01 07:53:21;;;;;;;1.60;1.50;;;;;;;16.02;100.00;96301.91;5093603;28;20196;-82
2021/06/01 07:55:48;;;;;;;1.27;1.27;;;;;;;15.86;100.00;96300.31;5093699;28;20283;-82
2021/06/01 07:58:14;;;;;;;1.40;1.30;;;;;;;16.16;100.00;96317.72;5093437;28;20232;-82
2021/06/01 08:00:41;;;;;;;1.60;1.50;;;;;;;16.11;100.00;96304.22;5093688;28;20192;-82
2021/06/01 08:03:08;;;;;;;1.77;1.30;;;;;;;16.19;100.00;96295.28;5093428;28;20231;-83
2021/06/01 08:05:37;;;;;;;1.83;1.73;;;;;;;15.93;100.00;96275.53;5093898;28;20573;-83
2021/06/01 08:08:04;;;;;;;1.47;1.37;;;;;;;16.01;100.00;96277.22;5093395;28;20193;-82
2021/06/01 08:10:32;;;;;;;1.63;1.53;;;;;;;16.35;100.00;96279.09;5093239;28;20205;-82
2021/06/01 08:13:01;;;;;;;2.30;1.30;;;;;;;16.27;100.00;96252.72;5093324;28;20198;-83
2021/06/01 08:15:28;;;;;;;1.50;1.40;;;;;;;16.12;100.00;96246.69;5093313;28;20194;-83
2021/06/01 08:17:58;;;;;;;1.60;1.10;;;;;;;16.39;100.00;96239.75;5093136;28;20257;-82
2021/06/01 08:20:32;;;;;;;1.33;1.30;;;;;;;16.79;100.00;96264.66;5092314;28;20191;-83
2021/06/01 08:23:01;;;;;;;1.10;1.10;;;;;;;16.61;100.00;96224.53;5093169;28;20190;-83
2021/06/01 08:25:28;;;;;;;1.50;1.40;;;;;;;16.72;100.00;96225.81;5093153;28;20237;-83
2021/06/01 08:27:56;;;;;;;1.23;1.23;;;;;;;17.14;100.00;96253.13;5093126;28;20199;-82
2021/06/01 08:30:24;;;;;;;1.40;1.30;;;;;;;16.82;100.00;96243.03;5092897;28;20198;-83
2021/06/01 08:32:50;;;;;;;1.37;1.20;;;;;;;17.21;100.00;96246.81;5092937;28;20195;-83
2021/06/01 08:35:17;;;;;;;1.67;1.30;;;;;;;17.31;100.00;96225.19;5093048;28;20200;-83
2021/06/01 08:37:44;;;;;;;1.60;1.50;;;;;;;17.26;100.00;96222.34;5092679;28;20234;-83
2021/06/01 08:40:14;;;;;;;2.37;1.50;;;;;;;17.52;100.00;96222.34;5092813;28;20239;-83
2021/06/01 08:42:41;;;;;;;1.13;1.10;;;;;;;17.07;100.00;96218.59;5093138;28;20215;-83
2021/06/01 08:45:09;;;;;;;3.37;1.40;;;;;;;16.85;100.00;96226.69;5092732;28;20223;-83
2021/06/01 08:47:38;;;;;;;1.43;1.33;;;;;;;16.57;100.00;96239.22;5092795;28;20199;-83
2021/06/01 08:50:08;;;;;;;1.40;1.30;;;;;;;16.03;100.00;96279.66;5092495;28;20199;-83
2021/06/01 08:52:36;;;;;;;2.63;2.03;;;;;;;15.64;100.00;96278.28;5092711;28;20199;-83
2021/06/01 08:55:03;;;;;;;2.83;1.80;;;;;;;15.65;100.00;96309.06;5092284;28;20205;-83
2021/06/01 08:57:34;;;;;;;2.60;2.03;;;;;;;15.55;100.00;96319.16;5092887;28;20226;-82
2021/06/01 09:00:01;;;;;;;1.57;1.47;;;;;;;15.58;100.00;96408.84;5092450;28;20190;-83
2021/06/01 09:02:27;;;;;;;1.30;1.20;;;;;;;15.75;100.00;96468.59;5092595;28;20194;-83
2021/06/01 09:04:58;;;;;;;1.33;1.27;;;;;;;15.46;100.00;96486.16;5092338;28;20199;-82
2021/06/01 09:07:34;;;;;;;1.80;1.47;;;;;;;15.46;100.00;96486.16;5092504;28;20630;-83
2021/06/01 09:10:27;;;;;;;1.70;1.60;;;;;;;16.01;100.00;96497.25;5091930;28;20181;-83
2021/06/01 09:21:42;;;;;;;1.77;1.67;;;;;;;15.35;100.00;96430.19;5092124;28;20184;-83
2021/06/01 09:24:09;;;;;;;1.63;1.53;;;;;;;15.88;100.00;96450.19;5092065;28;20185;-83
2021/06/01 09:26:58;;;;;;;1.50;1.40;;;;;;;16.91;100.00;96434.00;5092432;28;20203;-83
2021/06/01 09:29:27;;;;;;;1.70;1.60;;;;;;;17.38;100.00;96366.81;5091836;28;20226;-83
2021/06/01 09:32:08;;;;;;;2.37;1.40;;;;;;;17.45;100.00;96361.53;5092248;28;20272;-83
2021/06/01 09:34:43;;;;;;;1.87;1.77;;;;;;;16.71;100.00;96340.94;5092184;28;20191;-82
2021/06/01 09:37:18;;;;;;;1.57;1.47;;;;;;;16.21;100.00;96311.84;5091767;28;20762;-83
2021/06/01 09:39:45;;;;;;;2.57;1.73;;;;;;;16.69;100.00;96348.25;5092104;28;20201;-83
2021/06/01 09:42:25;;;;;;;2.33;2.13;;;;;;;16.40;100.00;96318.28;5092294;28;20579;-83
2021/06/01 09:45:09;;;;;;;2.57;1.93;;;;;;;16.53;100.00;96365.31;5091812;28;20191;-83
2021/06/01 09:47:53;;;;;;;1.60;1.50;;;;;;;15.93;100.00;96381.56;5092295;28;20202;-83
2021/06/01 09:50:27;;;;;;;3.53;1.43;;;;;;;16.24;100.00;96404.25;5091801;28;20223;-83
2021/06/01 09:52:57;;;;;;;2.00;1.90;;;;;;;16.50;100.00;96411.63;5091997;28;20286;-84
2021/06/01 09:55:29;;;;;;;1.97;1.87;;;;;;;16.85;100.00;96375.34;5091867;28;20571;-84
2021/06/01 09:57:57;;;;;;;5.53;1.80;;;;;;;17.27;100.00;96354.94;5089565;28;20207;-85
2021/06/01 10:00:31;;;;;;;2.30;2.10;;;;;;;17.61;100.00;96318.66;5091205;28;20286;-85
2021/06/01 10:03:01;;;;;;;1.90;1.80;;;;;;;17.33;100.00;96308.16;5091607;28;20685;-84
2021/06/01 10:05:30;;;;;;;1.23;1.20;;;;;;;16.32;100.00;96316.63;5091768;28;20194;-84
2021/06/01 10:08:00;;;;;;;1.53;1.40;;;;;;;16.05;100.00;96328.03;5091621;28;20195;-84
2021/06/01 10:10:28;;;;;;;1.63;1.40;;;;;;;16.22;100.00;96328.56;5091742;28;20280;-84
2021/06/01 10:12:57;;;;;;;1.20;1.20;;;;;;;17.09;100.00;96334.22;5091604;28;20206;-84
2021/06/01 10:15:27;;;;;;;3.33;1.57;;;;;;;17.08;100.00;96298.06;5091539;28;20246;-84
2021/06/01 10:17:54;;;;;;;1.70;1.60;;;;;;;17.45;100.00;96281.81;5091426;28;20613;-85
2021/06/01 10:20:23;;;;;;;1.30;1.20;;;;;;;17.76;100.00;96266.16;5091479;28;20202;-86
2021/06/01 10:22:50;;;;;;;1.33;1.23;;;;;;;18.32;100.00;96256.09;5092073;28;20228;-87
2021/06/01 10:25:18;;;;;;;3.80;1.40;;;;;;;17.41;100.00;96246.06;5091713;28;20688;-85
2021/06/01 10:27:46;;;;;;;1.57;1.47;;;;;;;17.46;100.00;96248.94;5091753;28;20283;-85
2021/06/01 10:30:16;;;;;;;1.30;1.27;;;;;;;17.96;100.00;96193.56;5091747;28;20191;-87
2021/06/01 10:32:49;;;;;;;1.63;1.53;;;;;;;18.05;100.00;96210.94;5091649;28;20225;-86
2021/06/01 10:35:19;;;;;;;1.40;1.30;;;;;;;17.07;100.00;96130.97;5091443;28;20202;-84
2021/06/01 10:43:53;;;;;;;1.13;1.03;;;;;;;16.87;100.00;96125.66;5091698;28;20190;-86
2021/06/01 10:52:06;;;;;;;1.63;1.53;;;;;;;17.63;100.00;96238.72;5086061;28;20244;-85
2021/06/01 10:54:55;;;;;;;1.90;1.40;;;;;;;18.34;100.00;96232.78;5094653;28;20274;-85
2021/06/01 10:57:22;;;;;;;1.43;1.33;;;;;;;18.10;100.00;96181.06;5094818;28;20224;-86
2021/06/01 11:02:39;;;;;;;2.23;1.10;;;;;;;18.70;100.00;96060.06;5094836;28;20268;-87
2021/06/01 11:05:10;;;;;;;1.60;1.50;;;;;;;19.05;100.00;96002.88;5094744;28;20679;-87
2021/06/01 11:07:55;;;;;;;2.50;1.33;;;;;;;19.17;100.00;95967.31;5095206;28;20231;-91
2021/06/01 11:10:37;;;;;;;1.90;1.40;;;;;;;18.47;100.00;95971.97;5094868;28;20220;-87
2021/06/01 11:13:04;;;;;;;1.30;1.30;;;;;;;18.00;100.00;95990.03;5094913;28;20217;-87
2021/06/01 11:15:34;;;;;;;1.40;1.40;;;;;;;17.66;100.00;96020.38;5094648;28;20222;-86
2021/06/01 11:18:28;;;;;;;1.67;1.57;;;;;;;18.09;100.00;96060.56;5094522;28;20220;-87
2021/06/01 11:21:20;;;;;;;1.40;1.30;;;;;;;18.63;100.00;96069.09;5094750;28;20191;-86
2021/06/01 11:33:03;;;;;;;1.83;1.30;;;;;;;18.34;100.00;96150.31;5094982;28;20288;-88
2021/06/01 11:35:32;;;;;;;1.93;1.73;;;;;;;18.38;100.00;96156.84;5094441;28;20570;-87
2021/06/01 11:38:08;;;;;;;1.50;1.40;;;;;;;18.20;100.00;96149.53;5093923;28;20212;-86
2021/06/01 11:40:39;;;;;;;1.37;1.37;;;;;;;17.95;100.00;96175.97;5094031;28;20176;-87
2021/06/01 11:43:08;;;;;;;3.30;1.13;;;;;;;17.50;100.00;96192.53;5093881;28;20192;-86
2021/06/01 11:46:04;;;;;;;1.13;1.13;;;;;;;17.49;100.00;96190.06;5093854;28;20205;-87
2021/06/01 11:51:25;;;;;;;1.10;1.00;;;;;;;17.62;100.00;96178.63;5055018;28;20202;-87
2021/06/01 11:53:55;;;;;;;1.33;1.23;;;;;;;17.80;100.00;96198.28;5093998;28;20184;-87
2021/06/01 11:56:41;;;;;;;1.33;1.23;;;;;;;17.69;100.00;96180.25;5093828;28;20188;-87
2021/06/01 12:02:11;;;;;;;1.40;1.30;;;;;;;17.24;100.00;96245.59;5093991;28;20281;-86
2021/06/01 12:18:46;;;;;;;1.00;1.00;;;;;;;17.96;100.00;96181.06;5093407;28;20246;-87
2021/06/01 12:21:17;;;;;;;0.90;0.90;;;;;;;17.61;100.00;96164.53;5093827;28;20279;-86
2021/06/01 12:23:47;;;;;;;1.03;1.03;;;;;;;17.40;100.00;96175.34;5093456;28;20184;-86
2021/06/01 12:26:19;;;;;;;1.40;1.30;;;;;;;17.53;100.00;96199.28;5093403;28;20192;-85
2021/06/01 12:32:06;;;;;;;0.80;0.80;;;;;;;17.10;100.00;96178.38;5093383;28;20183;-85
2021/06/01 12:34:48;;;;;;;0.90;0.90;;;;;;;17.08;100.00;96185.75;5092873;28;20180;-85
2021/06/01 12:43:06;;;;;;;1.37;1.07;;;;;;;17.27;100.00;96253.19;5093101;28;20678;-85
2021/06/01 13:08:53;;;;;;;1.63;1.10;;;;;;;17.26;100.00;96299.38;5091362;28;20184;-84